createdAt,value
2022-08-05T00:00:18.918Z,16.80
2022-08-05T00:02:51.089Z,17.05
2022-08-05T00:06:03.253Z,13.63
2022-08-05T00:08:34.157Z,13.38
2022-08-05T00:11:00.923Z,18.13
2022-08-05T00:13:39.620Z,10.00
2022-08-05T00:16:12.656Z,22.73
2022-08-05T00:18:44.512Z,16.98
2022-08-05T00:21:14.711Z,19.10
2022-08-05T00:24:05.063Z,12.25
2022-08-05T00:26:33.837Z,17.00
2022-08-05T00:29:01.069Z,17.77
2022-08-05T00:31:52.943Z,9.05
2022-08-05T00:34:56.930Z,9.65
2022-08-05T00:37:09.902Z,16.40
2022-08-05T00:39:58.765Z,11.20
2022-08-05T00:42:40.031Z,10.77
2022-08-05T00:45:11.739Z,14.88
2022-08-05T00:47:57.002Z,15.13
2022-08-05T00:50:25.841Z,15.00
2022-08-05T00:52:55.046Z,18.75
2022-08-05T00:55:34.047Z,12.20
2022-08-05T00:58:14.201Z,17.55
2022-08-05T01:00:42.043Z,17.52
2022-08-05T01:03:12.688Z,21.38
2022-08-05T01:05:54.582Z,18.83
2022-08-05T01:08:41.598Z,16.75
2022-08-05T01:11:21.793Z,19.95
2022-08-05T01:14:08.627Z,15.35
2022-08-05T01:17:07.631Z,17.48
2022-08-05T01:20:02.000Z,22.42
2022-08-05T01:23:00.605Z,16.17
2022-08-05T01:26:26.224Z,18.10
2022-08-05T01:29:13.745Z,22.95
2022-08-05T01:31:58.894Z,15.77
2022-08-05T01:34:35.898Z,22.40
2022-08-05T01:37:24.575Z,19.98
2022-08-05T01:39:59.215Z,25.15
2022-08-05T01:42:31.399Z,20.45
2022-08-05T01:45:02.438Z,21.50
2022-08-05T01:47:38.808Z,25.77
2022-08-05T01:50:18.734Z,26.63
2022-08-05T01:53:05.377Z,33.22
2022-08-05T01:55:37.450Z,26.65
2022-08-05T01:58:15.754Z,18.83
2022-08-05T02:00:50.952Z,27.60
2022-08-05T02:03:41.029Z,23.02
2022-08-05T02:06:33.407Z,24.20
2022-08-05T02:08:59.267Z,14.05
2022-08-05T02:11:37.567Z,20.05
2022-08-05T02:14:17.439Z,21.02
2022-08-05T02:16:52.168Z,24.08
2022-08-05T02:19:46.960Z,18.15
2022-08-05T02:22:31.652Z,25.50
2022-08-05T02:25:08.670Z,16.40
2022-08-05T02:27:58.378Z,15.55
2022-08-05T02:30:38.231Z,15.75
2022-08-05T02:33:24.325Z,18.80
2022-08-05T02:35:59.094Z,22.17
2022-08-05T02:38:35.080Z,20.58
2022-08-05T02:41:28.370Z,19.10
2022-08-05T02:44:06.054Z,21.25
2022-08-05T02:46:53.102Z,17.33
2022-08-05T02:49:37.079Z,18.35
2022-08-05T02:52:30.077Z,19.50
2022-08-05T02:55:05.369Z,15.55
2022-08-05T02:58:10.567Z,18.13
2022-08-05T03:00:23.085Z,12.70
2022-08-05T03:02:54.788Z,24.40
2022-08-05T03:06:54.300Z,19.38
2022-08-05T03:08:12.345Z,23.52
2022-08-05T03:11:00.927Z,20.45
2022-08-05T03:13:51.987Z,19.27
2022-08-05T03:16:21.212Z,19.65
2022-08-05T03:18:49.419Z,20.58
2022-08-05T03:21:16.770Z,23.58
2022-08-05T03:23:45.607Z,18.95
2022-08-05T03:26:31.059Z,18.92
2022-08-05T03:29:01.621Z,23.58
2022-08-05T03:31:55.598Z,29.40
2022-08-05T03:34:18.075Z,23.35
2022-08-05T03:36:45.929Z,21.63
2022-08-05T03:39:20.080Z,18.88
2022-08-05T03:41:56.287Z,19.80
2022-08-05T03:44:25.330Z,23.25
2022-08-05T03:46:56.513Z,22.15
2022-08-05T03:49:24.220Z,20.92
2022-08-05T03:52:50.587Z,17.05
2022-08-05T03:56:05.556Z,16.38
2022-08-05T03:57:53.171Z,12.63
2022-08-05T04:00:26.633Z,15.80
2022-08-05T04:02:59.218Z,15.00
2022-08-05T04:05:33.394Z,11.25
2022-08-05T04:08:14.560Z,11.23
2022-08-05T04:10:45.243Z,19.02
2022-08-05T04:13:13.326Z,20.60
2022-08-05T04:16:03.373Z,14.50
2022-08-05T04:18:30.125Z,20.00
2022-08-05T04:20:59.116Z,18.85
2022-08-05T04:24:05.977Z,15.63
2022-08-05T04:26:17.448Z,12.27
2022-08-05T04:28:51.108Z,15.63
2022-08-05T04:31:20.401Z,15.70
2022-08-05T04:34:19.158Z,12.93
2022-08-05T04:36:46.590Z,15.75
2022-08-05T04:39:21.700Z,11.85
2022-08-05T04:41:51.006Z,9.50
2022-08-05T04:44:29.020Z,21.23
2022-08-05T04:47:09.789Z,14.50
2022-08-05T04:50:01.381Z,14.77
2022-08-05T04:52:27.362Z,18.40
2022-08-05T04:54:57.298Z,17.42
2022-08-05T04:57:28.667Z,15.95
2022-08-05T04:59:58.523Z,15.55
2022-08-05T05:02:41.277Z,19.65
2022-08-05T05:05:26.642Z,20.30
2022-08-05T05:08:14.465Z,13.43
2022-08-05T05:10:59.087Z,18.92
2022-08-05T05:13:32.289Z,15.43
2022-08-05T05:16:10.944Z,21.75
2022-08-05T05:18:38.922Z,20.75
2022-08-05T05:21:06.406Z,15.60
2022-08-05T05:24:02.044Z,13.43
2022-08-05T05:26:28.753Z,17.02
2022-08-05T05:29:00.700Z,12.13
2022-08-05T05:31:35.998Z,13.55
2022-08-05T05:34:02.167Z,10.75
2022-08-05T05:36:31.993Z,13.00
2022-08-05T05:38:59.427Z,19.65
2022-08-05T05:41:40.425Z,17.98
2022-08-05T05:44:34.469Z,20.33
2022-08-05T05:46:58.056Z,18.42
2022-08-05T05:49:26.165Z,18.73
2022-08-05T05:51:54.926Z,16.38
2022-08-05T05:54:22.268Z,13.60
2022-08-05T05:57:13.515Z,15.52
2022-08-05T05:59:41.348Z,14.43
2022-08-05T06:02:10.707Z,15.13
2022-08-05T06:04:38.153Z,14.88
2022-08-05T06:07:05.256Z,14.05
2022-08-05T06:09:50.231Z,9.75
2022-08-05T06:12:19.884Z,18.15
2022-08-05T06:14:48.889Z,14.82
2022-08-05T06:17:22.419Z,13.07
2022-08-05T06:19:57.103Z,11.77
2022-08-05T06:22:35.093Z,11.00
2022-08-05T06:25:25.028Z,15.98
2022-08-05T06:28:11.136Z,9.38
2022-08-05T06:30:38.769Z,10.70
2022-08-05T06:33:09.981Z,15.75
2022-08-05T06:36:06.812Z,13.65
2022-08-05T06:38:35.811Z,14.23
2022-08-05T06:41:07.657Z,19.27
2022-08-05T06:43:58.163Z,16.17
2022-08-05T06:46:23.037Z,23.90
2022-08-05T06:48:59.279Z,15.35
2022-08-05T06:51:31.034Z,22.48
2022-08-05T06:54:04.273Z,15.25
2022-08-05T06:56:34.397Z,17.45
2022-08-05T06:59:09.639Z,13.02
2022-08-05T07:01:40.769Z,13.40
2022-08-05T07:04:09.795Z,9.25
2022-08-05T07:06:37.205Z,7.90
2022-08-05T07:09:05.022Z,8.93
2022-08-05T07:11:37.053Z,9.07
2022-08-05T07:14:30.099Z,12.77
2022-08-05T07:18:01.835Z,12.35
2022-08-05T07:22:39.690Z,11.50
2022-08-05T07:25:22.493Z,9.50
2022-08-05T07:28:03.767Z,10.48
2022-08-05T07:30:38.840Z,10.57
2022-08-05T07:33:15.543Z,11.57
2022-08-05T07:36:04.265Z,9.57
2022-08-05T07:38:43.307Z,7.32
2022-08-05T07:42:13.615Z,8.38
2022-08-05T07:44:14.033Z,11.32
2022-08-05T07:46:49.749Z,10.10
2022-08-05T07:49:19.006Z,10.25
2022-08-05T07:51:53.734Z,8.48
2022-08-05T07:54:30.749Z,10.15
2022-08-05T07:57:23.666Z,10.98
2022-08-05T07:59:51.807Z,15.05
2022-08-05T08:02:26.677Z,12.07
2022-08-05T08:04:59.440Z,9.98
2022-08-05T08:07:29.218Z,9.55
2022-08-05T08:10:07.421Z,11.93
2022-08-05T08:12:49.236Z,11.30
2022-08-05T08:15:17.291Z,16.88
2022-08-05T08:17:49.914Z,15.32
2022-08-05T08:21:00.547Z,18.35
2022-08-05T08:23:11.814Z,18.60
2022-08-05T08:26:02.892Z,14.52
2022-08-05T08:28:35.600Z,11.05
2022-08-05T08:31:09.555Z,13.05
2022-08-05T08:33:51.717Z,12.52
2022-08-05T08:36:39.284Z,13.15
2022-08-05T08:39:14.962Z,9.80
2022-08-05T08:41:51.361Z,13.93
2022-08-05T08:45:19.799Z,12.10
2022-08-05T08:48:05.860Z,14.50
2022-08-05T08:50:30.873Z,12.50
2022-08-05T08:53:12.011Z,12.68
2022-08-05T08:56:04.560Z,12.13
2022-08-05T08:58:37.198Z,9.73
2022-08-05T09:01:18.283Z,13.85
2022-08-05T09:03:54.517Z,12.27
2022-08-05T09:06:27.965Z,9.23
2022-08-05T09:09:01.129Z,9.52
2022-08-05T09:11:52.037Z,13.18
2022-08-05T09:14:56.854Z,9.60
2022-08-05T09:17:40.052Z,9.38
2022-08-05T09:20:02.468Z,8.38
2022-08-05T09:23:19.431Z,8.40
2022-08-05T09:26:01.997Z,10.90
2022-08-05T09:28:34.944Z,13.30
2022-08-05T09:31:43.863Z,14.85
2022-08-05T09:34:10.345Z,7.55
2022-08-05T09:36:56.100Z,9.18
2022-08-05T09:39:45.863Z,8.88
2022-08-05T09:42:24.557Z,6.22
2022-08-05T09:45:03.304Z,11.60
2022-08-05T09:47:55.640Z,8.13
2022-08-05T09:50:44.510Z,10.80
2022-08-05T09:53:23.185Z,12.90
2022-08-05T09:56:04.020Z,11.57
2022-08-05T09:58:32.912Z,14.80
2022-08-05T10:01:15.437Z,16.40
2022-08-05T10:04:17.541Z,13.05
2022-08-05T10:06:59.639Z,14.30
2022-08-05T10:09:29.829Z,15.63
2022-08-05T10:12:18.797Z,12.38
2022-08-05T10:15:21.795Z,10.43
2022-08-05T10:18:17.426Z,11.57
2022-08-05T10:20:48.757Z,10.25
2022-08-05T10:23:55.550Z,12.00
2022-08-05T10:26:14.986Z,10.23
2022-08-05T10:28:46.415Z,13.90
2022-08-05T10:32:47.177Z,14.05
2022-08-05T10:34:03.957Z,12.32
2022-08-05T10:36:38.273Z,11.95
2022-08-05T10:40:03.097Z,10.93
2022-08-05T10:42:33.413Z,9.77
2022-08-05T10:45:20.932Z,13.55
2022-08-05T10:48:29.865Z,11.43
2022-08-05T10:50:59.658Z,13.18
2022-08-05T10:53:58.583Z,16.02
2022-08-05T10:56:55.983Z,16.05
2022-08-05T11:00:03.437Z,14.52
2022-08-05T11:02:37.948Z,13.65
2022-08-05T11:05:10.641Z,12.55
2022-08-05T11:08:01.733Z,10.70
2022-08-05T11:11:00.042Z,11.65
2022-08-05T11:13:54.956Z,8.50
2022-08-05T11:16:33.736Z,13.23
2022-08-05T11:20:11.121Z,12.93
2022-08-05T11:22:49.800Z,14.45
2022-08-05T11:26:06.222Z,16.42
2022-08-05T11:28:26.857Z,11.07
2022-08-05T11:31:06.585Z,14.30
2022-08-05T11:33:52.309Z,9.13
2022-08-05T11:36:42.032Z,9.40
2022-08-05T11:39:14.676Z,8.73
2022-08-05T11:42:01.092Z,10.70
2022-08-05T11:44:53.891Z,10.23
2022-08-05T11:47:48.777Z,10.32
2022-08-05T11:50:14.304Z,9.00
2022-08-05T11:52:44.018Z,7.57
2022-08-05T11:55:16.467Z,9.48
2022-08-05T11:58:10.061Z,7.88
2022-08-05T12:00:38.446Z,12.40
2022-08-05T12:03:29.651Z,10.52
2022-08-05T12:06:03.260Z,10.88
2022-08-05T12:08:33.797Z,7.97
2022-08-05T12:11:05.658Z,15.60
2022-08-05T12:13:48.770Z,7.53
2022-08-05T12:16:25.705Z,4.88
2022-08-05T12:18:55.777Z,7.68
2022-08-05T12:21:39.119Z,7.72
2022-08-05T12:24:11.252Z,5.68
2022-08-05T12:26:46.517Z,10.90
2022-08-05T12:29:22.998Z,6.57
2022-08-05T12:31:54.677Z,4.95
2022-08-05T12:34:32.749Z,3.85
2022-08-05T12:37:10.693Z,8.50
2022-08-05T12:39:39.893Z,5.63
2022-08-05T12:42:16.054Z,7.28
2022-08-05T12:44:46.003Z,7.43
2022-08-05T12:47:31.020Z,10.52
2022-08-05T12:50:04.782Z,10.02
2022-08-05T12:52:42.448Z,5.15
2022-08-05T12:55:22.075Z,7.35
2022-08-05T12:58:48.634Z,6.13
2022-08-05T13:02:04.164Z,7.55
2022-08-05T13:03:41.354Z,6.68
2022-08-05T13:06:17.719Z,5.53
2022-08-05T13:08:52.283Z,6.68
2022-08-05T13:12:03.134Z,9.77
2022-08-05T13:14:36.677Z,5.75
2022-08-05T13:17:16.448Z,7.45
2022-08-05T13:20:11.491Z,7.82
2022-08-05T13:22:43.363Z,5.40
2022-08-05T13:25:19.231Z,3.85
2022-08-05T13:27:56.168Z,10.32
2022-08-05T13:30:34.254Z,5.65
2022-08-05T13:33:02.617Z,4.90
2022-08-05T13:35:42.957Z,3.22
2022-08-05T13:38:28.160Z,3.40
2022-08-05T13:41:00.520Z,4.22
2022-08-05T13:43:43.962Z,2.58
2022-08-05T13:46:16.185Z,2.67
2022-08-05T13:48:58.389Z,5.53
2022-08-05T13:51:40.193Z,4.28
2022-08-05T13:54:13.676Z,3.13
2022-08-05T13:56:51.656Z,3.00
2022-08-05T13:59:24.840Z,3.58
2022-08-05T14:01:57.968Z,6.55
2022-08-05T14:04:55.616Z,4.88
2022-08-05T14:08:00.907Z,3.15
2022-08-05T14:10:28.696Z,4.15
2022-08-05T14:12:59.755Z,3.00
2022-08-05T14:16:07.758Z,5.13
2022-08-05T14:18:18.291Z,3.08
2022-08-05T14:20:54.419Z,8.18
2022-08-05T14:23:26.047Z,5.35
2022-08-05T14:25:58.490Z,5.63
2022-08-05T14:28:28.806Z,15.57
2022-08-05T14:30:58.300Z,9.73
2022-08-05T14:33:25.872Z,10.20
2022-08-05T14:35:54.504Z,6.38
2022-08-05T14:38:32.788Z,5.75
2022-08-05T14:41:07.640Z,7.70
2022-08-05T14:44:02.107Z,6.85
2022-08-05T14:46:28.741Z,5.85
2022-08-05T14:49:06.235Z,6.07
2022-08-05T14:51:39.010Z,5.93
2022-08-05T14:54:28.255Z,7.13
2022-08-05T14:56:59.492Z,6.03
2022-08-05T14:59:29.364Z,6.28
2022-08-05T15:01:58.323Z,3.03
2022-08-05T15:04:28.983Z,10.98
2022-08-05T15:06:56.630Z,5.68
2022-08-05T15:09:52.750Z,5.53
2022-08-05T15:12:16.714Z,6.07
2022-08-05T15:14:50.274Z,3.05
2022-08-05T15:17:47.303Z,6.57
2022-08-05T15:20:15.537Z,5.20
2022-08-05T15:22:54.410Z,4.97
2022-08-05T15:25:41.103Z,7.13
2022-08-05T15:28:15.644Z,4.88
2022-08-05T15:30:46.238Z,9.00
2022-08-05T15:33:56.734Z,3.78
2022-08-05T15:36:06.070Z,4.25
2022-08-05T15:38:44.806Z,4.32
2022-08-05T15:41:21.998Z,3.20
2022-08-05T15:43:54.901Z,3.35
2022-08-05T15:46:24.465Z,3.70
2022-08-05T15:48:58.750Z,2.78
2022-08-05T15:52:13.717Z,4.22
2022-08-05T15:54:17.577Z,2.90
2022-08-05T15:56:44.738Z,4.95
2022-08-05T15:59:21.774Z,6.97
2022-08-05T16:01:52.526Z,3.72
2022-08-05T16:04:25.655Z,5.35
2022-08-05T16:06:55.607Z,3.58
2022-08-05T16:09:25.197Z,2.60
2022-08-05T16:11:54.166Z,3.40
2022-08-05T16:14:22.974Z,3.55
2022-08-05T16:16:50.596Z,3.05
2022-08-05T16:19:25.270Z,3.40
2022-08-05T16:22:10.459Z,4.82
2022-08-05T16:24:41.145Z,3.85
2022-08-05T16:27:18.470Z,2.80
2022-08-05T16:29:50.752Z,4.93
2022-08-05T16:32:23.386Z,7.38
2022-08-05T16:34:55.738Z,3.20
2022-08-05T16:38:15.172Z,3.55
2022-08-05T16:40:24.717Z,2.65
2022-08-05T16:42:53.952Z,4.78
2022-08-05T16:46:05.101Z,1.70
2022-08-05T16:48:10.377Z,3.42
2022-08-05T16:50:37.901Z,3.35
2022-08-05T16:53:12.583Z,2.85
2022-08-05T16:55:49.897Z,5.13
2022-08-05T16:58:19.753Z,2.50
2022-08-05T17:00:48.210Z,2.75
2022-08-05T17:03:20.548Z,2.67
2022-08-05T17:05:53.717Z,4.43
2022-08-05T17:08:36.176Z,3.75
2022-08-05T17:11:12.759Z,2.85
2022-08-05T17:13:46.249Z,4.32
2022-08-05T17:16:33.667Z,3.30
2022-08-05T17:19:01.517Z,4.00
2022-08-05T17:21:36.217Z,3.38
2022-08-05T17:24:30.327Z,1.50
2022-08-05T17:26:58.201Z,6.38
2022-08-05T17:29:33.268Z,3.20
2022-08-05T17:32:11.346Z,2.58
2022-08-05T17:34:47.918Z,2.53
2022-08-05T17:37:39.755Z,5.82
2022-08-05T17:40:12.276Z,2.58
2022-08-05T17:42:51.369Z,2.17
2022-08-05T17:45:24.877Z,5.43
2022-08-05T17:47:55.975Z,2.65
2022-08-05T17:50:30.319Z,3.65
2022-08-05T17:53:05.378Z,3.80
2022-08-05T17:55:37.768Z,4.45
2022-08-05T17:58:13.637Z,2.90
2022-08-05T18:00:47.732Z,2.38
2022-08-05T18:06:12.286Z,3.97
2022-08-05T18:08:45.796Z,4.32
2022-08-05T18:11:24.165Z,2.35
2022-08-05T18:14:03.379Z,4.28
2022-08-05T18:16:32.647Z,2.85
2022-08-05T18:19:00.719Z,3.00
2022-08-05T18:22:07.850Z,3.92
2022-08-05T18:24:16.055Z,4.22
2022-08-05T18:26:43.800Z,3.10
2022-08-05T18:29:11.654Z,4.78
2022-08-05T18:31:42.900Z,4.25
2022-08-05T18:34:12.638Z,5.35
2022-08-05T18:36:41.267Z,5.68
2022-08-05T18:39:42.293Z,4.50
2022-08-05T18:42:06.367Z,4.93
2022-08-05T18:44:49.209Z,6.38
2022-08-05T18:47:26.469Z,3.55
2022-08-05T18:50:15.421Z,4.07
2022-08-05T18:52:50.887Z,3.75
2022-08-05T18:55:21.492Z,3.80
2022-08-05T18:57:52.756Z,4.95
2022-08-05T19:00:28.432Z,4.45
2022-08-05T19:03:03.976Z,3.10
2022-08-05T19:06:12.226Z,4.68
2022-08-05T19:08:20.183Z,5.68
2022-08-05T19:10:50.186Z,7.72
2022-08-05T19:13:19.757Z,4.60
2022-08-05T19:15:59.109Z,3.28
2022-08-05T19:18:30.890Z,6.45
2022-08-05T19:20:59.668Z,4.97
2022-08-05T19:24:07.210Z,7.40
2022-08-05T19:26:16.524Z,4.78
2022-08-05T19:28:44.051Z,2.95
2022-08-05T19:31:15.034Z,6.68
2022-08-05T19:33:48.435Z,5.60
2022-08-05T19:36:25.213Z,3.53
2022-08-05T19:38:55.169Z,6.72
2022-08-05T19:41:58.278Z,4.03
2022-08-05T19:44:18.810Z,5.07
2022-08-05T19:46:47.030Z,3.78
2022-08-05T19:49:24.932Z,8.18
2022-08-05T19:52:05.040Z,4.82
2022-08-05T19:54:37.250Z,6.43
2022-08-05T19:57:09.270Z,5.18
2022-08-05T19:59:56.225Z,3.90
2022-08-05T20:02:30.364Z,4.07
2022-08-05T20:04:59.823Z,4.47
2022-08-05T20:07:46.887Z,5.43
2022-08-05T20:10:19.380Z,5.05
2022-08-05T20:12:49.589Z,4.95
2022-08-05T20:15:48.972Z,10.60
2022-08-05T20:18:10.723Z,8.00
2022-08-05T20:20:57.051Z,5.32
2022-08-05T20:23:39.431Z,8.88
2022-08-05T20:26:15.944Z,7.93
2022-08-05T20:28:50.360Z,7.00
2022-08-05T20:31:21.567Z,8.30
2022-08-05T20:33:51.211Z,6.03
2022-08-05T20:36:19.850Z,6.60
2022-08-05T20:38:53.779Z,3.45
2022-08-05T20:41:43.859Z,8.30
2022-08-05T20:44:17.102Z,3.37
2022-08-05T20:46:48.093Z,3.35
2022-08-05T20:49:18.442Z,6.30
2022-08-05T20:51:53.669Z,7.13
2022-08-05T20:54:25.890Z,5.32
2022-08-05T20:57:11.177Z,7.07
2022-08-05T20:59:46.219Z,3.75
2022-08-05T21:02:29.664Z,4.72
2022-08-05T21:04:56.804Z,5.25
2022-08-05T21:07:24.814Z,7.50
2022-08-05T21:10:13.845Z,5.30
2022-08-05T21:12:41.123Z,6.33
2022-08-05T21:15:25.865Z,6.20
2022-08-05T21:18:02.247Z,5.67
2022-08-05T21:20:32.817Z,8.75
2022-08-05T21:23:01.494Z,4.83
2022-08-05T21:25:33.922Z,5.80
2022-08-05T21:28:03.235Z,7.13
2022-08-05T21:30:31.659Z,4.30
2022-08-05T21:32:59.750Z,9.73
2022-08-05T21:35:55.428Z,7.23
2022-08-05T21:38:18.996Z,4.50
2022-08-05T21:40:46.153Z,4.90
2022-08-05T21:43:24.339Z,4.60
2022-08-05T21:45:57.390Z,4.60
2022-08-05T21:48:25.245Z,3.37
2022-08-05T21:50:54.521Z,5.13
2022-08-05T21:53:27.286Z,4.27
2022-08-05T21:56:05.517Z,4.90
2022-08-05T21:58:42.117Z,3.40
2022-08-05T22:01:10.653Z,1.53
2022-08-05T22:03:52.494Z,4.60
2022-08-05T22:06:33.550Z,7.47
2022-08-05T22:09:15.145Z,2.83
2022-08-05T22:11:48.038Z,3.57
2022-08-05T22:14:34.343Z,2.40
2022-08-05T22:17:07.194Z,5.23
2022-08-05T22:20:01.888Z,5.23
2022-08-05T22:22:27.945Z,5.43
2022-08-05T22:25:18.049Z,2.63
2022-08-05T22:28:11.130Z,4.90
2022-08-05T22:30:44.250Z,3.40
2022-08-05T22:33:55.716Z,3.13
2022-08-05T22:36:15.160Z,3.47
2022-08-05T22:38:48.185Z,2.00
2022-08-05T22:41:26.369Z,2.80
2022-08-05T22:44:07.931Z,4.53
2022-08-05T22:46:39.750Z,1.87
2022-08-05T22:49:12.494Z,5.20
2022-08-05T22:52:05.693Z,1.67
2022-08-05T22:54:36.581Z,1.73
2022-08-05T22:57:06.035Z,5.37
2022-08-05T22:59:48.596Z,2.93
2022-08-05T23:02:29.765Z,3.87
2022-08-05T23:05:01.879Z,1.77
2022-08-05T23:07:45.203Z,1.27
2022-08-05T23:10:20.274Z,2.27
2022-08-05T23:12:51.215Z,4.10
2022-08-05T23:15:18.851Z,2.40
2022-08-05T23:18:00.409Z,2.20
2022-08-05T23:20:37.056Z,1.43
2022-08-05T23:23:08.405Z,1.93
2022-08-05T23:25:53.470Z,2.13
2022-08-05T23:28:28.699Z,2.20
2022-08-05T23:31:03.731Z,2.53
2022-08-05T23:34:03.048Z,2.07
2022-08-05T23:36:38.525Z,2.60
2022-08-05T23:39:07.806Z,2.20
2022-08-05T23:41:40.957Z,3.07
2022-08-05T23:44:16.697Z,4.03
2022-08-05T23:46:44.280Z,2.20
2022-08-05T23:49:16.506Z,2.03
2022-08-05T23:52:03.280Z,4.40
2022-08-05T23:54:38.047Z,1.93
2022-08-05T23:57:07.688Z,2.77
